sensor_id;sensor_type;location;lat;lon;timestamp;pressure;altitude;pressure_sealevel;temperature;humidity
21273;BME280;36726;52.328;10.552;2022-07-29T00:02:13;100966.94;;;15.47;57.57
21273;BME280;36726;52.328;10.552;2022-07-29T00:04:40;100966.97;;;15.46;58.06
21273;BME280;36726;52.328;10.552;2022-07-29T00:07:07;100959.88;;;15.45;58.03
21273;BME280;36726;52.328;10.552;2022-07-29T00:09:33;100951.88;;;15.45;57.98
21273;BME280;36726;52.328;10.552;2022-07-29T00:12:16;100951.88;;;15.46;58.37
21273;BME280;36726;52.328;10.552;2022-07-29T00:14:52;100944.75;;;15.48;58.13
21273;BME280;36726;52.328;10.552;2022-07-29T00:17:19;100942.06;;;15.51;58.64
21273;BME280;36726;52.328;10.552;2022-07-29T00:19:45;100937.63;;;15.55;58.51
21273;BME280;36726;52.328;10.552;2022-07-29T00:22:12;100941.16;;;15.58;58.65
21273;BME280;36726;52.328;10.552;2022-07-29T00:24:38;100939.38;;;15.62;58.47
21273;BME280;36726;52.328;10.552;2022-07-29T00:27:05;100936.75;;;15.65;58.49
21273;BME280;36726;52.328;10.552;2022-07-29T00:29:32;100940.25;;;15.67;58.25
21273;BME280;36726;52.328;10.552;2022-07-29T00:32:00;100927.81;;;15.69;58.25
21273;BME280;36726;52.328;10.552;2022-07-29T00:34:27;100933.16;;;15.72;58.38
21273;BME280;36726;52.328;10.552;2022-07-29T00:37:12;100931.34;;;15.73;58.01
21273;BME280;36726;52.328;10.552;2022-07-29T00:39:39;100934.91;;;15.75;58.14
21273;BME280;36726;52.328;10.552;2022-07-29T00:42:06;100924.25;;;15.75;58.44
21273;BME280;36726;52.328;10.552;2022-07-29T00:44:39;100913.59;;;15.73;58.07
21273;BME280;36726;52.328;10.552;2022-07-29T00:47:08;100911.81;;;15.74;58.40
21273;BME280;36726;52.328;10.552;2022-07-29T00:49:35;100916.25;;;15.72;58.44
21273;BME280;36726;52.328;10.552;2022-07-29T00:52:07;100910.94;;;15.69;57.94
21273;BME280;36726;52.328;10.552;2022-07-29T00:54:34;100911.81;;;15.68;58.31
21273;BME280;36726;52.328;10.552;2022-07-29T00:57:09;100910.94;;;15.66;58.24
21273;BME280;36726;52.328;10.552;2022-07-29T00:59:38;100907.38;;;15.64;58.25
21273;BME280;36726;52.328;10.552;2022-07-29T01:02:05;100906.50;;;15.65;58.78
21273;BME280;36726;52.328;10.552;2022-07-29T01:04:32;100903.84;;;15.65;58.84
21273;BME280;36726;52.328;10.552;2022-07-29T01:07:00;100904.72;;;15.64;59.18
21273;BME280;36726;52.328;10.552;2022-07-29T01:09:28;100902.94;;;15.63;58.52
21273;BME280;36726;52.328;10.552;2022-07-29T01:12:17;100897.63;;;15.63;58.86
21273;BME280;36726;52.328;10.552;2022-07-29T01:14:45;100900.28;;;15.64;58.88
21273;BME280;36726;52.328;10.552;2022-07-29T01:20:09;100892.28;;;15.63;59.38
21273;BME280;36726;52.328;10.552;2022-07-29T01:26:04;100886.94;;;15.63;59.58
21273;BME280;36726;52.328;10.552;2022-07-29T01:31:20;100882.50;;;15.60;59.44
21273;BME280;36726;52.328;10.552;2022-07-29T01:33:58;100877.16;;;15.60;59.62
21273;BME280;36726;52.328;10.552;2022-07-29T01:36:47;100875.41;;;15.57;59.58
21273;BME280;36726;52.328;10.552;2022-07-29T01:39:30;100883.41;;;15.57;59.92
21273;BME280;36726;52.328;10.552;2022-07-29T01:42:10;100879.84;;;15.58;59.54
21273;BME280;36726;52.328;10.552;2022-07-29T01:44:48;100877.19;;;15.58;59.99
21273;BME280;36726;52.328;10.552;2022-07-29T01:47:20;100881.63;;;15.56;60.42
21273;BME280;36726;52.328;10.552;2022-07-29T01:49:52;100876.28;;;15.55;60.46
21273;BME280;36726;52.328;10.552;2022-07-29T01:52:41;100875.41;;;15.54;60.27
21273;BME280;36726;52.328;10.552;2022-07-29T01:55:13;100870.97;;;15.53;60.21
21273;BME280;36726;52.328;10.552;2022-07-29T01:57:42;100869.19;;;15.52;60.42
21273;BME280;36726;52.328;10.552;2022-07-29T02:00:10;100873.66;;;15.52;60.44
21273;BME280;36726;52.328;10.552;2022-07-29T02:02:41;100869.19;;;15.52;60.74
21273;BME280;36726;52.328;10.552;2022-07-29T02:05:14;100862.09;;;15.51;60.89
21273;BME280;36726;52.328;10.552;2022-07-29T02:07:42;100853.19;;;15.51;60.74
21273;BME280;36726;52.328;10.552;2022-07-29T02:10:13;100850.53;;;15.51;60.58
21273;BME280;36726;52.328;10.552;2022-07-29T02:12:42;100854.97;;;15.52;60.46
21273;BME280;36726;52.328;10.552;2022-07-29T02:15:16;100862.09;;;15.51;60.61
21273;BME280;36726;52.328;10.552;2022-07-29T02:17:49;100862.09;;;15.51;60.93
21273;BME280;36726;52.328;10.552;2022-07-29T02:20:18;100856.75;;;15.51;60.78
21273;BME280;36726;52.328;10.552;2022-07-29T02:22:46;100856.75;;;15.53;60.82
21273;BME280;36726;52.328;10.552;2022-07-29T02:25:13;100853.22;;;15.54;60.47
21273;BME280;36726;52.328;10.552;2022-07-29T02:27:43;100851.41;;;15.54;60.58
21273;BME280;36726;52.328;10.552;2022-07-29T02:30:11;100846.06;;;15.54;60.67
21273;BME280;36726;52.328;10.552;2022-07-29T02:32:40;100847.88;;;15.55;60.79
21273;BME280;36726;52.328;10.552;2022-07-29T02:35:09;100851.41;;;15.54;60.63
21273;BME280;36726;52.328;10.552;2022-07-29T02:37:37;100848.75;;;15.53;60.79
21273;BME280;36726;52.328;10.552;2022-07-29T02:40:05;100841.66;;;15.52;60.59
21273;BME280;36726;52.328;10.552;2022-07-29T02:42:36;100840.78;;;15.48;61.37
21273;BME280;36726;52.328;10.552;2022-07-29T02:45:05;100838.13;;;15.47;61.27
21273;BME280;36726;52.328;10.552;2022-07-29T02:47:47;100841.69;;;15.43;61.15
21273;BME280;36726;52.328;10.552;2022-07-29T02:50:20;100838.13;;;15.41;61.60
21273;BME280;36726;52.328;10.552;2022-07-29T02:53:02;100838.09;;;15.39;61.53
21273;BME280;36726;52.328;10.552;2022-07-29T02:55:56;100835.41;;;15.36;61.75
21273;BME280;36726;52.328;10.552;2022-07-29T02:58:29;100833.66;;;15.35;62.28
21273;BME280;36726;52.328;10.552;2022-07-29T03:01:00;100833.66;;;15.34;62.47
21273;BME280;36726;52.328;10.552;2022-07-29T03:03:34;100825.69;;;15.32;62.40
21273;BME280;36726;52.328;10.552;2022-07-29T03:06:03;100823.88;;;15.33;62.58
21273;BME280;36726;52.328;10.552;2022-07-29T03:08:31;100826.56;;;15.31;62.64
21273;BME280;36726;52.328;10.552;2022-07-29T03:10:58;100837.22;;;15.31;62.78
21273;BME280;36726;52.328;10.552;2022-07-29T03:13:27;100831.88;;;15.31;63.07
21273;BME280;36726;52.328;10.552;2022-07-29T03:15:55;100829.22;;;15.30;63.07
21273;BME280;36726;52.328;10.552;2022-07-29T03:18:22;100831.91;;;15.28;62.96
21273;BME280;36726;52.328;10.552;2022-07-29T03:20:48;100841.66;;;15.28;62.91
21273;BME280;36726;52.328;10.552;2022-07-29T03:23:19;100842.59;;;15.25;63.16
21273;BME280;36726;52.328;10.552;2022-07-29T03:25:47;100826.56;;;15.24;63.24
21273;BME280;36726;52.328;10.552;2022-07-29T03:28:13;100829.22;;;15.24;63.34
21273;BME280;36726;52.328;10.552;2022-07-29T03:30:41;100833.69;;;15.23;63.38
21273;BME280;36726;52.328;10.552;2022-07-29T03:33:10;100826.56;;;15.22;63.72
21273;BME280;36726;52.328;10.552;2022-07-29T03:35:39;100830.16;;;15.21;63.22
21273;BME280;36726;52.328;10.552;2022-07-29T03:38:06;100831.91;;;15.21;63.77
21273;BME280;36726;52.328;10.552;2022-07-29T03:40:49;100828.34;;;15.20;63.31
21273;BME280;36726;52.328;10.552;2022-07-29T03:43:18;100827.50;;;15.20;63.69
21273;BME280;36726;52.328;10.552;2022-07-29T03:45:49;100822.16;;;15.21;63.68
21273;BME280;36726;52.328;10.552;2022-07-29T03:48:19;100818.59;;;15.21;63.47
21273;BME280;36726;52.328;10.552;2022-07-29T03:50:47;100815.00;;;15.22;63.85
21273;BME280;36726;52.328;10.552;2022-07-29T03:53:14;100813.25;;;15.24;63.76
21273;BME280;36726;52.328;10.552;2022-07-29T03:55:45;100812.34;;;15.26;63.58
21273;BME280;36726;52.328;10.552;2022-07-29T03:58:13;100815.00;;;15.28;63.74
21273;BME280;36726;52.328;10.552;2022-07-29T04:00:42;100814.13;;;15.30;63.50
21273;BME280;36726;52.328;10.552;2022-07-29T04:03:09;100813.22;;;15.31;63.92
21273;BME280;36726;52.328;10.552;2022-07-29T04:05:37;100815.00;;;15.34;63.88
21273;BME280;36726;52.328;10.552;2022-07-29T04:08:04;100822.09;;;15.35;63.65
21273;BME280;36726;52.328;10.552;2022-07-29T04:10:30;100831.88;;;15.37;63.81
21273;BME280;36726;52.328;10.552;2022-07-29T04:13:00;100833.63;;;15.38;64.17
21273;BME280;36726;52.328;10.552;2022-07-29T04:15:27;100826.56;;;15.40;63.93
21273;BME280;36726;52.328;10.552;2022-07-29T04:17:57;100829.22;;;15.40;64.10
21273;BME280;36726;52.328;10.552;2022-07-29T04:20:24;100836.31;;;15.40;64.32
21273;BME280;36726;52.328;10.552;2022-07-29T04:22:50;100830.09;;;15.39;64.30
21273;BME280;36726;52.328;10.552;2022-07-29T04:25:17;100826.53;;;15.39;64.37
21273;BME280;36726;52.328;10.552;2022-07-29T04:27:43;100828.31;;;15.38;64.30
21273;BME280;36726;52.328;10.552;2022-07-29T04:30:29;100827.47;;;15.41;64.58
21273;BME280;36726;52.328;10.552;2022-07-29T04:32:56;100823.88;;;15.42;64.84
21273;BME280;36726;52.328;10.552;2022-07-29T04:35:23;100816.78;;;15.44;64.65
21273;BME280;36726;52.328;10.552;2022-07-29T04:37:49;100822.13;;;15.48;64.41
21273;BME280;36726;52.328;10.552;2022-07-29T04:40:16;100818.53;;;15.51;64.69
21273;BME280;36726;52.328;10.552;2022-07-29T04:42:43;100814.06;;;15.54;64.83
21273;BME280;36726;52.328;10.552;2022-07-29T04:45:13;100810.50;;;15.58;64.86
21273;BME280;36726;52.328;10.552;2022-07-29T04:47:41;100812.28;;;15.63;64.98
21273;BME280;36726;52.328;10.552;2022-07-29T04:50:09;100817.59;;;15.66;65.18
21273;BME280;36726;52.328;10.552;2022-07-29T04:52:36;100824.69;;;15.70;64.97
21273;BME280;36726;52.328;10.552;2022-07-29T04:55:04;100827.34;;;15.71;64.66
21273;BME280;36726;52.328;10.552;2022-07-29T04:57:31;100824.69;;;15.73;64.85
21273;BME280;36726;52.328;10.552;2022-07-29T04:59:58;100830.00;;;15.77;64.91
21273;BME280;36726;52.328;10.552;2022-07-29T05:02:24;100823.75;;;15.80;65.28
21273;BME280;36726;52.328;10.552;2022-07-29T05:04:51;100829.97;;;15.82;64.85
21273;BME280;36726;52.328;10.552;2022-07-29T05:07:18;100831.75;;;15.86;65.02
21273;BME280;36726;52.328;10.552;2022-07-29T05:09:44;100828.16;;;15.90;65.06
21273;BME280;36726;52.328;10.552;2022-07-29T05:12:11;100824.59;;;15.94;65.04
21273;BME280;36726;52.328;10.552;2022-07-29T05:14:38;100824.56;;;15.97;64.68
21273;BME280;36726;52.328;10.552;2022-07-29T05:17:04;100820.09;;;16.00;64.98
21273;BME280;36726;52.328;10.552;2022-07-29T05:19:31;100823.63;;;16.05;64.66
21273;BME280;36726;52.328;10.552;2022-07-29T05:21:58;100818.31;;;16.08;64.70
21273;BME280;36726;52.328;10.552;2022-07-29T05:24:26;100820.97;;;16.10;64.70
21273;BME280;36726;52.328;10.552;2022-07-29T05:26:52;100818.28;;;16.11;64.99
21273;BME280;36726;52.328;10.552;2022-07-29T05:29:19;100820.06;;;16.14;64.74
21273;BME280;36726;52.328;10.552;2022-07-29T05:32:06;100818.22;;;16.16;64.93
21273;BME280;36726;52.328;10.552;2022-07-29T05:34:32;100821.75;;;16.19;64.56
21273;BME280;36726;52.328;10.552;2022-07-29T05:36:59;100817.31;;;16.24;64.79
21273;BME280;36726;52.328;10.552;2022-07-29T05:39:26;100810.16;;;16.28;64.64
21273;BME280;36726;52.328;10.552;2022-07-29T05:42:12;100814.56;;;16.36;64.47
21273;BME280;36726;52.328;10.552;2022-07-29T05:44:39;100817.19;;;16.44;64.51
21273;BME280;36726;52.328;10.552;2022-07-29T05:47:06;100821.59;;;16.52;64.36
21273;BME280;36726;52.328;10.552;2022-07-29T05:49:33;100823.28;;;16.61;63.96
21273;BME280;36726;52.328;10.552;2022-07-29T05:51:59;100826.81;;;16.69;64.27
21273;BME280;36726;52.328;10.552;2022-07-29T05:54:26;100830.31;;;16.76;63.87
21273;BME280;36726;52.328;10.552;2022-07-29T05:56:52;100817.81;;;16.82;63.98
21273;BME280;36726;52.328;10.552;2022-07-29T05:59:19;100831.09;;;16.91;63.83
21273;BME280;36726;52.328;10.552;2022-07-29T06:01:46;100830.09;;;17.01;63.59
21273;BME280;36726;52.328;10.552;2022-07-29T06:04:12;100832.63;;;17.13;63.49
21273;BME280;36726;52.328;10.552;2022-07-29T06:06:40;100832.53;;;17.25;63.44
21273;BME280;36726;52.328;10.552;2022-07-29T06:09:06;100832.34;;;17.40;63.05
21273;BME280;36726;52.328;10.552;2022-07-29T06:11:38;100840.25;;;17.57;62.65
21273;BME280;36726;52.328;10.552;2022-07-29T06:14:04;100833.81;;;17.72;62.29
21273;BME280;36726;52.328;10.552;2022-07-29T06:16:31;100831.03;;;17.81;62.08
21273;BME280;36726;52.328;10.552;2022-07-29T06:18:58;100833.59;;;17.90;61.69
21273;BME280;36726;52.328;10.552;2022-07-29T06:21:24;100841.53;;;17.97;61.74
21273;BME280;36726;52.328;10.552;2022-07-29T06:23:51;100845.94;;;18.03;61.51
21273;BME280;36726;52.328;10.552;2022-07-29T06:26:18;100840.50;;;18.09;61.52
21273;BME280;36726;52.328;10.552;2022-07-29T06:28:56;100827.88;;;18.17;60.59
21273;BME280;36726;52.328;10.552;2022-07-29T06:31:23;100822.47;;;18.21;60.06
21273;BME280;36726;52.328;10.552;2022-07-29T06:33:50;100817.88;;;18.29;59.69
21273;BME280;36726;52.328;10.552;2022-07-29T06:36:19;100820.41;;;18.43;59.43
21273;BME280;36726;52.328;10.552;2022-07-29T06:38:48;100813.03;;;18.57;59.34
21273;BME280;36726;52.328;10.552;2022-07-29T06:41:17;100812.78;;;18.74;59.34
21273;BME280;36726;52.328;10.552;2022-07-29T06:43:47;100808.88;;;18.91;58.72
21273;BME280;36726;52.328;10.552;2022-07-29T06:46:20;100803.28;;;19.03;58.36
21273;BME280;36726;52.328;10.552;2022-07-29T06:48:47;100798.63;;;19.14;58.05
21273;BME280;36726;52.328;10.552;2022-07-29T06:51:14;100806.53;;;19.22;57.24
21273;BME280;36726;52.328;10.552;2022-07-29T06:53:42;100809.97;;;19.31;57.29
21273;BME280;36726;52.328;10.552;2022-07-29T06:56:32;100810.72;;;19.38;56.96
21273;BME280;36726;52.328;10.552;2022-07-29T06:59:06;100818.72;;;19.42;56.51
21273;BME280;36726;52.328;10.552;2022-07-29T07:01:33;100814.22;;;19.43;56.19
21273;BME280;36726;52.328;10.552;2022-07-29T07:04:00;100817.75;;;19.45;56.55
21273;BME280;36726;52.328;10.552;2022-07-29T07:06:26;100817.72;;;19.46;56.57
21273;BME280;36726;52.328;10.552;2022-07-29T07:08:53;100809.66;;;19.46;56.30
21273;BME280;36726;52.328;10.552;2022-07-29T07:11:20;100812.31;;;19.48;56.31
21273;BME280;36726;52.328;10.552;2022-07-29T07:13:46;100811.38;;;19.50;56.62
21273;BME280;36726;52.328;10.552;2022-07-29T07:16:13;100817.50;;;19.58;56.86
21273;BME280;36726;52.328;10.552;2022-07-29T07:18:40;100820.94;;;19.65;56.80
21273;BME280;36726;52.328;10.552;2022-07-29T07:21:06;100823.44;;;19.74;57.01
21273;BME280;36726;52.328;10.552;2022-07-29T07:23:33;100826.00;;;19.80;55.97
21273;BME280;36726;52.328;10.552;2022-07-29T07:26:00;100823.13;;;19.89;56.17
21273;BME280;36726;52.328;10.552;2022-07-29T07:28:26;100821.28;;;19.91;55.54
21273;BME280;36726;52.328;10.552;2022-07-29T07:30:53;100817.72;;;19.91;55.56
21273;BME280;36726;52.328;10.552;2022-07-29T07:33:20;100808.69;;;19.95;55.47
21273;BME280;36726;52.328;10.552;2022-07-29T07:35:46;100802.25;;;20.02;55.53
21273;BME280;36726;52.328;10.552;2022-07-29T07:38:13;100803.88;;;20.09;55.70
21273;BME280;36726;52.328;10.552;2022-07-29T07:40:40;100803.78;;;20.13;55.00
21273;BME280;36726;52.328;10.552;2022-07-29T07:43:07;100798.22;;;20.22;54.87
21273;BME280;36726;52.328;10.552;2022-07-29T07:45:33;100797.00;;;20.37;54.03
21273;BME280;36726;52.328;10.552;2022-07-29T07:48:00;100795.88;;;20.47;53.92
21273;BME280;36726;52.328;10.552;2022-07-29T07:50:27;100803.63;;;20.59;53.60
21273;BME280;36726;52.328;10.552;2022-07-29T07:52:55;100797.94;;;20.71;53.18
21273;BME280;36726;52.328;10.552;2022-07-29T07:55:25;100794.03;;;20.84;53.03
21273;BME280;36726;52.328;10.552;2022-07-29T07:57:52;100791.19;;;20.90;52.18
21273;BME280;36726;52.328;10.552;2022-07-29T08:00:19;100789.97;;;21.03;52.46
21273;BME280;36726;52.328;10.552;2022-07-29T08:02:49;100781.69;;;21.11;52.17
21273;BME280;36726;52.328;10.552;2022-07-29T08:05:17;100793.91;;;21.24;52.06
21273;BME280;36726;52.328;10.552;2022-07-29T08:07:45;100783.78;;;21.33;51.93
21273;BME280;36726;52.328;10.552;2022-07-29T08:10:16;100782.53;;;21.46;51.66
21273;BME280;36726;52.328;10.552;2022-07-29T08:13:07;100781.22;;;21.59;51.26
21273;BME280;36726;52.328;10.552;2022-07-29T08:15:34;100784.59;;;21.67;51.11
21273;BME280;36726;52.328;10.552;2022-07-29T08:18:01;100776.19;;;21.78;50.58
21273;BME280;36726;52.328;10.552;2022-07-29T08:20:35;100775.06;;;21.87;50.42
21273;BME280;36726;52.328;10.552;2022-07-29T08:23:03;100775.72;;;21.95;50.03
21273;BME280;36726;52.328;10.552;2022-07-29T08:25:30;100778.16;;;22.04;49.91
21273;BME280;36726;52.328;10.552;2022-07-29T08:28:00;100778.72;;;22.13;49.71
21273;BME280;36726;52.328;10.552;2022-07-29T08:30:27;100779.31;;;22.23;49.69
21273;BME280;36726;52.328;10.552;2022-07-29T08:32:53;100778.84;;;22.38;49.58
21273;BME280;36726;52.328;10.552;2022-07-29T08:35:23;100792.75;;;22.52;48.84
21273;BME280;36726;52.328;10.552;2022-07-29T08:37:51;100778.91;;;22.64;48.84
21273;BME280;36726;52.328;10.552;2022-07-29T08:40:18;100780.44;;;22.73;48.74
21273;BME280;36726;52.328;10.552;2022-07-29T08:42:57;100781.00;;;22.82;48.74
21273;BME280;36726;52.328;10.552;2022-07-29T08:45:24;100782.66;;;22.86;48.82
21273;BME280;36726;52.328;10.552;2022-07-29T08:47:52;100787.94;;;22.89;49.04
21273;BME280;36726;52.328;10.552;2022-07-29T08:50:18;100780.78;;;22.88;48.40
21273;BME280;36726;52.328;10.552;2022-07-29T08:52:45;100787.06;;;22.89;48.68
21273;BME280;36726;52.328;10.552;2022-07-29T08:55:15;100786.19;;;22.88;48.45
21273;BME280;36726;52.328;10.552;2022-07-29T08:57:46;100784.25;;;22.92;47.88
21273;BME280;36726;52.328;10.552;2022-07-29T09:00:20;100784.22;;;22.93;48.62
21273;BME280;36726;52.328;10.552;2022-07-29T09:02:51;100785.94;;;22.96;49.03
21273;BME280;36726;52.328;10.552;2022-07-29T09:05:23;100784.00;;;22.99;48.96
21273;BME280;36726;52.328;10.552;2022-07-29T09:07:50;100794.91;;;22.96;48.49
21273;BME280;36726;52.328;10.552;2022-07-29T09:10:17;100793.25;;;22.92;49.11
21273;BME280;36726;52.328;10.552;2022-07-29T09:12:44;100793.34;;;22.89;48.01
21273;BME280;36726;52.328;10.552;2022-07-29T09:15:10;100791.59;;;22.88;48.30
21273;BME280;36726;52.328;10.552;2022-07-29T09:17:45;100780.91;;;22.85;48.11
21273;BME280;36726;52.328;10.552;2022-07-29T09:20:16;100783.38;;;22.91;48.38
21273;BME280;36726;52.328;10.552;2022-07-29T09:22:44;100782.13;;;23.01;47.88
21273;BME280;36726;52.328;10.552;2022-07-29T09:25:13;100783.38;;;23.17;47.94
21273;BME280;36726;52.328;10.552;2022-07-29T09:27:40;100778.25;;;23.34;47.65
21273;BME280;36726;52.328;10.552;2022-07-29T09:30:09;100782.09;;;23.53;48.09
21273;BME280;36726;52.328;10.552;2022-07-29T09:33:00;100774.41;;;23.66;47.76
21273;BME280;36726;52.328;10.552;2022-07-29T09:35:31;100775.09;;;23.71;47.18
21273;BME280;36726;52.328;10.552;2022-07-29T09:38:09;100768.94;;;23.67;46.96
21273;BME280;36726;52.328;10.552;2022-07-29T09:40:36;100771.97;;;23.58;47.08
21273;BME280;36726;52.328;10.552;2022-07-29T09:43:13;100768.78;;;23.47;47.61
21273;BME280;36726;52.328;10.552;2022-07-29T09:45:40;100767.97;;;23.45;47.77
21273;BME280;36726;52.328;10.552;2022-07-29T09:48:17;100761.78;;;23.42;47.97
21273;BME280;36726;52.328;10.552;2022-07-29T09:50:45;100764.34;;;23.46;48.49
21273;BME280;36726;52.328;10.552;2022-07-29T09:53:30;100761.47;;;23.51;47.67
21273;BME280;36726;52.328;10.552;2022-07-29T09:55:56;100751.41;;;23.54;47.81
21273;BME280;36726;52.328;10.552;2022-07-29T09:58:23;100755.66;;;23.61;47.92
21273;BME280;36726;52.328;10.552;2022-07-29T10:00:52;100749.06;;;23.68;47.46
21273;BME280;36726;52.328;10.552;2022-07-29T10:03:19;100741.78;;;23.71;46.78
21273;BME280;36726;52.328;10.552;2022-07-29T10:05:46;100755.91;;;23.79;47.27
21273;BME280;36726;52.328;10.552;2022-07-29T10:08:29;100752.97;;;23.85;47.07
21273;BME280;36726;52.328;10.552;2022-07-29T10:11:09;100738.47;;;23.87;46.65
21273;BME280;36726;52.328;10.552;2022-07-29T10:13:37;100748.28;;;23.90;46.25
21273;BME280;36726;52.328;10.552;2022-07-29T10:16:04;100743.63;;;23.93;46.08
21273;BME280;36726;52.328;10.552;2022-07-29T10:18:32;100743.50;;;23.96;45.98
21273;BME280;36726;52.328;10.552;2022-07-29T10:21:00;100744.25;;;24.00;45.93
21273;BME280;36726;52.328;10.552;2022-07-29T10:23:28;100736.84;;;24.06;45.71
21273;BME280;36726;52.328;10.552;2022-07-29T10:26:11;100738.53;;;24.09;46.03
21273;BME280;36726;52.328;10.552;2022-07-29T10:28:39;100742.41;;;24.02;45.93
21273;BME280;36726;52.328;10.552;2022-07-29T10:31:08;100741.69;;;23.97;45.86
21273;BME280;36726;52.328;10.552;2022-07-29T10:33:47;100735.59;;;23.92;45.70
21273;BME280;36726;52.328;10.552;2022-07-29T10:36:41;100742.88;;;23.90;45.59
21273;BME280;36726;52.328;10.552;2022-07-29T10:42:13;100740.66;;;24.01;45.72
21273;BME280;36726;52.328;10.552;2022-07-29T10:44:45;100729.50;;;24.10;44.76
21273;BME280;36726;52.328;10.552;2022-07-29T10:50:01;100731.19;;;24.34;44.63
21273;BME280;36726;52.328;10.552;2022-07-29T10:52:53;100730.31;;;24.55;44.81
21273;BME280;36726;52.328;10.552;2022-07-29T10:55:36;100735.78;;;24.75;44.22
21273;BME280;36726;52.328;10.552;2022-07-29T11:00:38;100727.78;;;25.14;44.06
21273;BME280;36726;52.328;10.552;2022-07-29T11:03:05;100720.78;;;25.28;43.53
21273;BME280;36726;52.328;10.552;2022-07-29T11:05:53;100726.50;;;25.42;42.67
21273;BME280;36726;52.328;10.552;2022-07-29T11:08:21;100725.16;;;25.52;42.49
21273;BME280;36726;52.328;10.552;2022-07-29T11:13:51;100724.88;;;25.77;42.92
21273;BME280;36726;52.328;10.552;2022-07-29T11:16:21;100720.50;;;25.93;42.61
21273;BME280;36726;52.328;10.552;2022-07-29T11:21:41;100716.56;;;26.19;42.29
21273;BME280;36726;52.328;10.552;2022-07-29T11:24:28;100715.66;;;26.37;41.86
21273;BME280;36726;52.328;10.552;2022-07-29T11:29:54;100711.78;;;26.59;41.56
21273;BME280;36726;52.328;10.552;2022-07-29T11:32:23;100706.59;;;26.74;40.97
21273;BME280;36726;52.328;10.552;2022-07-29T11:35:14;100702.50;;;26.82;40.89
21273;BME280;36726;52.328;10.552;2022-07-29T11:37:44;100707.94;;;26.82;40.91
21273;BME280;36726;52.328;10.552;2022-07-29T11:40:23;100704.50;;;26.79;40.29
21273;BME280;36726;52.328;10.552;2022-07-29T11:42:51;100704.41;;;26.80;40.30
21273;BME280;36726;52.328;10.552;2022-07-29T11:45:22;100699.53;;;26.87;40.94
21273;BME280;36726;52.328;10.552;2022-07-29T11:48:15;100699.78;;;26.99;38.95
21273;BME280;36726;52.328;10.552;2022-07-29T11:50:58;100700.34;;;27.06;38.33
21273;BME280;36726;52.328;10.552;2022-07-29T11:53:25;100698.97;;;27.14;38.15
21273;BME280;36726;52.328;10.552;2022-07-29T11:55:58;100695.84;;;27.22;37.88
21273;BME280;36726;52.328;10.552;2022-07-29T11:58:25;100690.25;;;27.25;38.13
21273;BME280;36726;52.328;10.552;2022-07-29T12:00:52;100695.59;;;27.26;37.51
21273;BME280;36726;52.328;10.552;2022-07-29T12:03:28;100696.56;;;27.25;37.67
21273;BME280;36726;52.328;10.552;2022-07-29T12:06:14;100692.25;;;27.21;37.08
21273;BME280;36726;52.328;10.552;2022-07-29T12:08:44;100703.44;;;27.15;36.61
21273;BME280;36726;52.328;10.552;2022-07-29T12:11:20;100689.31;;;27.09;36.68
21273;BME280;36726;52.328;10.552;2022-07-29T12:13:50;100689.31;;;27.09;37.12
21273;BME280;36726;52.328;10.552;2022-07-29T12:16:18;100692.91;;;27.09;37.37
21273;BME280;36726;52.328;10.552;2022-07-29T12:18:56;100682.94;;;27.10;37.13
21273;BME280;36726;52.328;10.552;2022-07-29T12:21:23;100693.72;;;27.11;36.78
21273;BME280;36726;52.328;10.552;2022-07-29T12:23:55;100677.97;;;27.18;36.46
21273;BME280;36726;52.328;10.552;2022-07-29T12:26:27;100675.63;;;27.27;36.31
21273;BME280;36726;52.328;10.552;2022-07-29T12:28:53;100675.78;;;27.41;36.37
21273;BME280;36726;52.328;10.552;2022-07-29T12:31:22;100676.53;;;27.60;35.97
21273;BME280;36726;52.328;10.552;2022-07-29T12:34:09;100668.22;;;27.79;35.93
21273;BME280;36726;52.328;10.552;2022-07-29T12:36:36;100674.44;;;27.98;35.47
21273;BME280;36726;52.328;10.552;2022-07-29T12:39:03;100673.72;;;28.10;35.13
21273;BME280;36726;52.328;10.552;2022-07-29T12:41:30;100674.84;;;28.22;33.96
21273;BME280;36726;52.328;10.552;2022-07-29T12:43:57;100671.22;;;28.37;33.17
21273;BME280;36726;52.328;10.552;2022-07-29T12:46:23;100676.59;;;28.54;32.58
21273;BME280;36726;52.328;10.552;2022-07-29T12:48:51;100670.75;;;28.76;32.40
21273;BME280;36726;52.328;10.552;2022-07-29T12:51:36;100673.16;;;28.96;32.45
21273;BME280;36726;52.328;10.552;2022-07-29T12:54:06;100675.38;;;29.03;32.26
21273;BME280;36726;52.328;10.552;2022-07-29T12:56:34;100674.84;;;29.12;32.15
21273;BME280;36726;52.328;10.552;2022-07-29T12:59:18;100670.59;;;29.22;31.65
21273;BME280;36726;52.328;10.552;2022-07-29T13:01:46;100670.03;;;29.31;31.41
21273;BME280;36726;52.328;10.552;2022-07-29T13:04:32;100674.00;;;29.40;31.25
21273;BME280;36726;52.328;10.552;2022-07-29T13:07:04;100675.00;;;29.39;31.03
21273;BME280;36726;52.328;10.552;2022-07-29T13:09:41;100673.72;;;29.44;31.63
21273;BME280;36726;52.328;10.552;2022-07-29T13:12:10;100678.19;;;29.45;30.59
21273;BME280;36726;52.328;10.552;2022-07-29T13:14:40;100671.75;;;29.46;30.75
21273;BME280;36726;52.328;10.552;2022-07-29T13:17:14;100674.41;;;29.48;30.79
21273;BME280;36726;52.328;10.552;2022-07-29T13:19:47;100671.88;;;29.45;30.30
21273;BME280;36726;52.328;10.552;2022-07-29T13:22:21;100676.47;;;29.44;30.22
21273;BME280;36726;52.328;10.552;2022-07-29T13:24:54;100674.31;;;29.49;30.86